Time;durP1;ratioP1;P1;durP2;ratioP2;P2;SDS_P1;SDS_P2;PMS_P1;PMS_P2;Temp;Humidity;BMP_temperature;BMP_pressure;BME280_temperature;BME280_humidity;BME280_pressure;Samples;Min_cycle;Max_cycle;Signal;HPM_P1;HPM_P2
2021/04/21 00:00:08;;;;;;;;;;;;;;;16.49;42.97;99938.47;5283256;27;34351;-93
2021/04/21 00:02:36;;;;;;;;;;;;;;;16.08;44.03;99941.44;5301748;27;32757;-93
2021/04/21 00:05:10;;;;;;;;;;;;;;;15.97;44.28;99942.81;5301463;27;33143;-93
2021/04/21 00:07:39;;;;;;;;;;;;;;;16.12;43.59;99948.25;5302198;27;33178;-94
2021/04/21 00:10:08;;;;;;;;;;;;;;;15.52;45.25;99955.47;5283314;27;33052;-94
2021/04/21 00:12:35;;;;;;;;;;;;;;;15.97;44.52;99948.09;5301474;27;33153;-94
2021/04/21 00:15:05;;;;;;;;;;;;;;;15.91;44.65;99937.03;5283640;27;32260;-94
2021/04/21 00:17:33;;;;;;;;;;;;;;;16.01;44.11;99943.53;5301187;27;32991;-94
2021/04/21 00:20:00;;;;;;;;;;;;;;;15.51;46.10;99943.25;5320150;26;33128;-94
2021/04/21 00:22:28;;;;;;;;;;;;;;;16.18;44.63;99943.53;5301688;27;32814;-93
2021/04/21 00:24:55;;;;;;;;;;;;;;;16.19;44.35;99936.47;5301749;27;31943;-94
2021/04/21 00:27:29;;;;;;;;;;;;;;;16.49;43.60;99935.81;5301902;27;33019;-93
2021/04/21 00:29:57;;;;;;;;;;;;;;;16.66;43.02;99942.84;5301751;27;33370;-94
2021/04/21 00:32:25;;;;;;;;;;;;;;;16.84;42.69;99930.47;5302483;27;32671;-94
2021/04/21 00:34:55;;;;;;;;;;;;;;;17.17;41.94;99927.78;5293528;27;32309;-93
2021/04/21 00:37:22;;;;;;;;;;;;;;;16.67;43.16;99934.00;5314001;27;32751;-92
2021/04/21 00:39:49;;;;;;;;;;;;;;;16.41;43.66;99925.72;5312657;27;33400;-93
2021/04/21 00:42:37;;;;;;;;;;;;;;;16.31;44.34;99925.34;5329159;27;35398;-93
2021/04/21 00:45:08;;;;;;;;;;;;;;;16.47;43.75;99927.16;5290926;27;32222;-93
2021/04/21 00:47:48;;;;;;;;;;;;;;;15.91;44.57;99923.88;5285328;27;32550;-93
2021/04/21 00:50:25;;;;;;;;;;;;;;;16.11;44.16;99913.19;5301731;27;33125;-94
2021/04/21 00:53:06;;;;;;;;;;;;;;;15.65;44.92;99916.34;5301628;27;32833;-93
2021/04/21 00:55:59;;;;;;;;;;;;;;;14.43;48.10;99915.88;5301347;27;33120;-93
2021/04/21 00:58:36;;;;;;;;;;;;;;;15.32;46.15;99917.06;5283436;27;32793;-93
2021/04/21 01:01:05;;;;;;;;;;;;;;;15.76;44.69;99917.59;5301406;27;32910;-93
2021/04/21 01:03:34;;;;;;;;;;;;;;;16.23;43.71;99914.34;5283445;27;34382;-94
2021/04/21 01:06:05;;;;;;;;;;;;;;;16.29;43.37;99916.69;5301705;27;32474;-93
2021/04/21 01:08:37;;;;;;;;;;;;;;;16.63;42.40;99922.81;5284508;27;32585;-93
2021/04/21 01:11:07;;;;;;;;;;;;;;;16.48;42.40;99926.22;5301619;27;33319;-93
2021/04/21 01:13:43;;;;;;;;;;;;;;;15.66;44.13;99928.56;5301989;27;33065;-93
2021/04/21 01:16:12;;;;;;;;;;;;;;;16.26;42.54;99927.34;5266574;27;32208;-94
2021/04/21 01:18:45;;;;;;;;;;;;;;;15.83;43.44;99938.28;5301829;27;34116;-94
2021/04/21 01:21:20;;;;;;;;;;;;;;;16.16;42.71;99934.84;5301564;27;33025;-94
2021/04/21 01:23:51;;;;;;;;;;;;;;;15.89;43.65;99937.09;5301657;27;32610;-93
2021/04/21 01:26:22;;;;;;;;;;;;;;;14.93;46.24;99927.63;5302258;27;33018;-94
2021/04/21 01:28:51;;;;;;;;;;;;;;;15.81;43.86;99928.75;5283966;27;32951;-93
2021/04/21 01:31:20;;;;;;;;;;;;;;;15.92;43.44;99931.69;5301808;27;33423;-95
2021/04/21 01:34:09;;;;;;;;;;;;;;;15.76;43.33;99930.72;5301286;27;33266;-93
2021/04/21 01:36:36;;;;;;;;;;;;;;;15.20;44.60;99944.72;5301296;27;32292;-93
2021/04/21 01:39:05;;;;;;;;;;;;;;;15.46;44.00;99937.41;5301583;27;32946;-93
2021/04/21 01:41:42;;;;;;;;;;;;;;;15.40;43.98;99937.69;5301547;27;33135;-94
2021/04/21 01:44:14;;;;;;;;;;;;;;;15.86;43.03;99938.09;5301143;27;33622;-92
2021/04/21 01:46:46;;;;;;;;;;;;;;;15.69;43.02;99936.28;5301541;27;32580;-93
2021/04/21 01:49:15;;;;;;;;;;;;;;;15.82;42.77;99939.19;5301356;27;32783;-93
2021/04/21 01:51:48;;;;;;;;;;;;;;;15.36;43.58;99936.97;5283989;27;32971;-94
2021/04/21 01:54:15;;;;;;;;;;;;;;;15.63;43.65;99939.19;5301364;27;33776;-94
2021/04/21 01:56:50;;;;;;;;;;;;;;;15.62;43.31;99926.13;5320053;27;32753;-94
2021/04/21 01:59:39;;;;;;;;;;;;;;;15.99;42.64;99937.47;5305104;27;35718;-93
2021/04/21 02:02:37;;;;;;;;;;;;;;;15.44;43.55;99928.75;5301354;27;33443;-93
2021/04/21 02:05:11;;;;;;;;;;;;;;;15.17;44.05;99944.00;5283590;27;34851;-92
2021/04/21 02:07:42;;;;;;;;;;;;;;;15.30;43.87;99937.28;5283553;27;31851;-93
2021/04/21 02:10:11;;;;;;;;;;;;;;;15.22;44.17;99930.69;5283193;27;32800;-93
2021/04/21 02:12:41;;;;;;;;;;;;;;;15.41;43.61;99938.53;5320859;26;33677;-93
2021/04/21 02:15:11;;;;;;;;;;;;;;;15.46;43.11;99931.28;5287369;27;32835;-93
2021/04/21 02:17:46;;;;;;;;;;;;;;;15.44;42.52;99934.00;5295733;27;33365;-93
2021/04/21 02:20:19;;;;;;;;;;;;;;;15.28;42.86;99935.66;5331269;26;34350;-92
2021/04/21 02:22:47;;;;;;;;;;;;;;;15.59;42.04;99929.75;5337501;26;32784;-92
2021/04/21 02:25:34;;;;;;;;;;;;;;;15.43;42.41;99929.66;5306610;27;33922;-92
2021/04/21 02:28:11;;;;;;;;;;;;;;;14.66;44.11;99934.06;5287158;27;32189;-93
2021/04/21 02:30:51;;;;;;;;;;;;;;;15.13;42.86;99931.97;5304089;27;33156;-94
2021/04/21 02:33:30;;;;;;;;;;;;;;;15.49;41.28;99932.00;5285131;27;32925;-94
2021/04/21 02:36:01;;;;;;;;;;;;;;;14.58;43.05;99930.91;5284380;27;33109;-94
2021/04/21 02:38:37;;;;;;;;;;;;;;;14.16;43.73;99945.81;5302210;27;32096;-93
2021/04/21 02:41:11;;;;;;;;;;;;;;;14.53;42.91;99933.75;5284644;27;33450;-93
2021/04/21 02:43:39;;;;;;;;;;;;;;;14.40;43.65;99931.72;5284535;27;33161;-93
2021/04/21 02:46:33;;;;;;;;;;;;;;;14.68;43.08;99936.66;5286257;27;33712;-93
2021/04/21 02:49:00;;;;;;;;;;;;;;;14.00;44.71;99940.37;5302132;27;32886;-93
2021/04/21 02:51:54;;;;;;;;;;;;;;;14.62;43.34;99935.09;5285604;27;33001;-94
2021/04/21 02:54:28;;;;;;;;;;;;;;;14.85;43.29;99935.84;5303070;27;32841;-93
2021/04/21 02:56:58;;;;;;;;;;;;;;;14.74;44.02;99935.50;5284457;27;32883;-94
2021/04/21 02:59:30;;;;;;;;;;;;;;;14.68;44.21;99942.72;5302722;27;31762;-94
2021/04/21 03:02:06;;;;;;;;;;;;;;;14.97;43.46;99944.94;5284639;27;32980;-93
2021/04/21 03:04:38;;;;;;;;;;;;;;;15.00;43.73;99947.44;5303817;27;33233;-93
2021/04/21 03:07:24;;;;;;;;;;;;;;;15.05;43.49;99947.22;5285705;27;33321;-93
2021/04/21 03:09:52;;;;;;;;;;;;;;;14.41;45.36;99944.75;5321720;26;33404;-93
2021/04/21 03:12:25;;;;;;;;;;;;;;;14.73;44.60;99941.66;5303873;27;32987;-94
2021/04/21 03:15:07;;;;;;;;;;;;;;;14.57;44.92;99944.97;5305779;27;32569;-94
2021/04/21 03:17:44;;;;;;;;;;;;;;;14.56;44.45;99943.25;5305941;27;33270;-94
2021/04/21 03:20:20;;;;;;;;;;;;;;;15.06;42.59;99946.31;5306587;27;32301;-94
2021/04/21 03:23:23;;;;;;;;;;;;;;;14.71;43.42;99946.16;5306760;27;32883;-92
2021/04/21 03:25:59;;;;;;;;;;;;;;;14.89;43.08;99947.94;5304209;27;32667;-93
2021/04/21 03:28:28;;;;;;;;;;;;;;;14.95;42.94;99947.63;5303013;27;33159;-93
2021/04/21 03:30:58;;;;;;;;;;;;;;;15.03;42.25;99948.13;5322346;26;31715;-94
2021/04/21 03:33:39;;;;;;;;;;;;;;;14.61;43.09;99945.66;5303214;27;33274;-93
2021/04/21 03:36:13;;;;;;;;;;;;;;;14.13;45.05;99945.97;5286085;27;33511;-95
2021/04/21 03:38:41;;;;;;;;;;;;;;;14.60;44.35;99950.06;5303195;27;32819;-94
2021/04/21 03:41:09;;;;;;;;;;;;;;;14.32;45.02;99951.25;5302861;27;33370;-94
2021/04/21 03:44:01;;;;;;;;;;;;;;;14.34;44.85;99944.16;5303158;27;33141;-94
2021/04/21 03:46:28;;;;;;;;;;;;;;;14.74;44.40;99943.38;5302588;27;32757;-93
2021/04/21 03:48:57;;;;;;;;;;;;;;;14.84;44.32;99947.28;5302434;27;33340;-94
2021/04/21 03:51:24;;;;;;;;;;;;;;;14.74;44.73;99954.72;5302345;27;31936;-94
2021/04/21 03:53:53;;;;;;;;;;;;;;;14.46;44.95;99950.66;5301974;27;32643;-94
2021/04/21 03:56:24;;;;;;;;;;;;;;;14.59;43.78;99955.37;5302103;27;33167;-93
2021/04/21 03:58:57;;;;;;;;;;;;;;;14.12;44.40;99964.34;5302152;27;32756;-94
2021/04/21 04:01:26;;;;;;;;;;;;;;;14.34;44.13;99956.44;5303667;27;33001;-94
2021/04/21 04:03:54;;;;;;;;;;;;;;;14.56;43.52;99958.13;5304765;27;33378;-93
2021/04/21 04:06:42;;;;;;;;;;;;;;;14.41;43.54;99952.63;5304308;27;33163;-93
2021/04/21 04:09:12;;;;;;;;;;;;;;;14.36;43.44;99965.09;5304686;27;32500;-93
2021/04/21 04:11:52;;;;;;;;;;;;;;;14.36;43.29;99957.22;5303569;27;32021;-94
2021/04/21 04:14:34;;;;;;;;;;;;;;;14.45;43.41;99955.97;5283994;27;33393;-94
2021/04/21 04:17:03;;;;;;;;;;;;;;;14.55;43.02;99967.75;5301930;26;33626;-93
2021/04/21 04:19:50;;;;;;;;;;;;;;;14.62;42.87;99963.94;5301942;27;32527;-94
2021/04/21 04:22:19;;;;;;;;;;;;;;;14.73;42.85;99968.75;5303608;27;32207;-95
2021/04/21 04:24:52;;;;;;;;;;;;;;;14.58;43.49;99970.25;5303238;27;33066;-92
2021/04/21 04:27:44;;;;;;;;;;;;;;;15.41;42.37;99977.91;5301553;27;33027;-92
2021/04/21 04:30:20;;;;;;;;;;;;;;;15.20;43.35;99986.72;5301847;27;32703;-93
2021/04/21 04:32:49;;;;;;;;;;;;;;;14.85;43.91;99985.69;5322309;27;33522;-94
2021/04/21 04:35:17;;;;;;;;;;;;;;;14.60;44.98;99985.91;5303578;27;34460;-93
2021/04/21 04:37:56;;;;;;;;;;;;;;;14.79;44.61;99986.00;5287841;27;33759;-94
2021/04/21 04:40:24;;;;;;;;;;;;;;;14.18;46.81;99996.38;5303744;27;32855;-94
2021/04/21 04:42:51;;;;;;;;;;;;;;;14.86;44.95;99996.16;5304146;27;32138;-94
2021/04/21 04:45:19;;;;;;;;;;;;;;;14.99;44.41;100003.47;5303759;27;34194;-93
2021/04/21 04:47:49;;;;;;;;;;;;;;;14.79;45.05;99997.31;5285881;27;33421;-94
2021/04/21 04:50:18;;;;;;;;;;;;;;;15.13;44.52;99998.44;5304198;27;33095;-94
2021/04/21 04:52:47;;;;;;;;;;;;;;;14.95;44.96;100001.91;5305241;27;32174;-94
2021/04/21 04:55:18;;;;;;;;;;;;;;;14.62;46.24;100010.28;5324032;26;32969;-93
2021/04/21 04:57:55;;;;;;;;;;;;;;;15.48;44.30;100010.84;5304627;27;33205;-94
2021/04/21 05:00:27;;;;;;;;;;;;;;;15.48;44.40;100010.84;5303872;27;34170;-93
2021/04/21 05:02:55;;;;;;;;;;;;;;;15.34;44.48;100021.97;5322875;26;32278;-95
2021/04/21 05:05:24;;;;;;;;;;;;;;;15.02;45.75;100009.44;5286826;27;32818;-94
2021/04/21 05:07:53;;;;;;;;;;;;;;;15.36;45.12;100018.38;5286859;27;33294;-94
2021/04/21 05:10:24;;;;;;;;;;;;;;;15.70;44.69;100010.66;5269936;27;33001;-93
2021/04/21 05:13:23;;;;;;;;;;;;;;;15.84;44.40;100012.69;5290765;27;32046;-94
2021/04/21 05:16:04;;;;;;;;;;;;;;;15.95;44.25;100020.03;5285624;27;33171;-94
2021/04/21 05:18:50;;;;;;;;;;;;;;;15.89;44.30;100010.69;5285461;27;34210;-93
2021/04/21 05:21:28;;;;;;;;;;;;;;;16.23;43.60;100016.87;5285189;27;32839;-93
2021/04/21 05:24:19;;;;;;;;;;;;;;;16.19;44.21;100017.97;5285751;27;31937;-93
2021/04/21 05:27:09;;;;;;;;;;;;;;;15.65;45.55;100016.16;5289432;27;33321;-93
2021/04/21 05:33:25;;;;;;;;;;;;;;;16.22;44.57;100015.19;5304271;27;32718;-92
2021/04/21 05:36:15;;;;;;;;;;;;;;;17.26;42.33;100021.22;5313117;26;32963;-91
2021/04/21 05:39:02;;;;;;;;;;;;;;;17.07;43.01;100021.38;5304690;27;34953;-89
2021/04/21 05:41:32;;;;;;;;;;;;;;;17.25;42.53;100022.16;5307911;27;34181;-89
2021/04/21 05:44:03;;;;;;;;;;;;;;;17.14;43.21;100017.47;5288291;27;33298;-91
2021/04/21 05:46:34;;;;;;;;;;;;;;;17.08;43.92;100022.22;5325545;26;32800;-88
2021/04/21 05:49:17;;;;;;;;;;;;;;;17.60;42.81;100016.72;5288610;27;33163;-87
2021/04/21 05:51:51;;;;;;;;;;;;;;;17.00;43.62;100018.22;5305416;27;35219;-90
2021/04/21 05:54:23;;;;;;;;;;;;;;;17.40;43.01;100019.63;5304348;27;32915;-89
2021/04/21 05:56:51;;;;;;;;;;;;;;;18.03;41.67;100024.88;5304474;27;32988;-91
2021/04/21 05:59:22;;;;;;;;;;;;;;;18.05;41.57;100027.41;5302851;27;33824;-89
2021/04/21 06:01:49;;;;;;;;;;;;;;;18.35;40.70;100032.69;5284339;27;33128;-92
2021/04/21 06:04:17;;;;;;;;;;;;;;;18.82;39.94;100037.88;5283418;27;34860;-92
2021/04/21 06:06:45;;;;;;;;;;;;;;;18.02;41.90;100035.50;5300965;27;32102;-93
2021/04/21 06:09:12;;;;;;;;;;;;;;;18.12;41.28;100038.47;5283121;27;32866;-93
2021/04/21 06:11:39;;;;;;;;;;;;;;;18.30;40.93;100040.03;5319275;26;33701;-93
2021/04/21 06:14:09;;;;;;;;;;;;;;;18.62;40.63;100045.19;5300959;27;34103;-92
2021/04/21 06:16:39;;;;;;;;;;;;;;;19.06;39.82;100034.72;5283326;27;32515;-94
2021/04/21 06:19:07;;;;;;;;;;;;;;;19.24;39.53;100036.22;5283353;27;33978;-93
2021/04/21 06:21:46;;;;;;;;;;;;;;;19.27;39.54;100037.81;5283431;27;33314;-94
2021/04/21 06:24:17;;;;;;;;;;;;;;;19.34;39.56;100028.56;5285182;27;33724;-93
2021/04/21 06:26:44;;;;;;;;;;;;;;;19.38;39.04;100035.34;5319825;26;32343;-92
2021/04/21 06:29:11;;;;;;;;;;;;;;;19.64;38.51;100031.03;5301646;27;33061;-92
2021/04/21 06:31:43;;;;;;;;;;;;;;;19.92;38.43;100031.09;5285632;27;34521;-94
2021/04/21 06:34:12;;;;;;;;;;;;;;;19.94;38.25;100032.66;5286449;27;33083;-92
2021/04/21 06:36:43;;;;;;;;;;;;;;;19.89;38.09;100031.28;5304211;27;32380;-93
2021/04/21 06:39:11;;;;;;;;;;;;;;;19.48;39.09;100039.09;5286187;27;32975;-90
2021/04/21 06:41:39;;;;;;;;;;;;;;;19.84;38.21;100034.22;5285720;27;33926;-89
2021/04/21 06:44:07;;;;;;;;;;;;;;;19.75;38.32;100029.50;5303754;27;32963;-90
2021/04/21 06:46:34;;;;;;;;;;;;;;;20.05;37.80;100042.56;5302534;27;32257;-87
2021/04/21 06:49:02;;;;;;;;;;;;;;;20.18;37.66;100037.28;5302937;27;33290;-86
2021/04/21 06:51:36;;;;;;;;;;;;;;;20.42;37.37;100036.59;5324445;26;34998;-94
2021/04/21 06:55:11;;;;;;;;;;;;;;;20.24;37.42;100036.87;5320386;26;20020;-86
2021/04/21 07:06:51;;;;;;;;;;;;;;;19.62;38.44;100035.56;5193929;27;33194;-88
2021/04/21 07:10:22;;;;;;;;;;;;;;;20.45;37.20;100033.72;5198156;27;34907;-89
2021/04/21 07:13:36;;;;;;;;;;;;;;;20.47;36.66;100040.63;5194468;27;32456;-88
2021/04/21 07:16:52;;;;;;;;;;;;;;;;;;;;;
2021/04/21 07:20:18;;;;;;;;;;;;;;;20.69;36.83;100039.22;5179827;27;34274;-88
2021/04/21 07:23:33;;;;;;;;;;;;;;;20.88;36.51;100035.28;5210034;27;34284;-88
2021/04/21 07:26:45;;;;;;;;;;;;;;;20.41;37.30;100049.00;5195828;27;33068;-87
2021/04/21 07:29:40;;;;;;;;;;;;;;;19.99;37.73;100053.53;5186005;27;32860;-88
2021/04/21 07:32:54;;;;;;;;;;;;;;;20.62;36.39;100048.47;5191873;27;34156;-90
2021/04/21 07:40:36;;;;;;;;;;;;;;;20.88;36.45;100056.47;5097891;28;33556;-88
2021/04/21 07:44:02;;;;;;;;;;;;;;;;;;;;;
2021/04/21 07:47:35;;;;;;;;;;;;;;;19.60;38.84;100063.91;5168366;27;33541;-90
2021/04/21 07:51:03;;;;;;;;;;;;;;;19.47;39.33;100063.81;5167173;27;33488;-89
2021/04/21 07:58:21;;;;;;;;;;;;;;;19.85;38.80;100072.94;5163931;27;34493;-89
2021/04/21 08:02:01;;;;;;;;;;;;;;;20.46;38.07;100077.78;5144558;27;34103;-88
2021/04/21 08:05:15;;;;;;;;;;;;;;;20.34;38.00;100077.66;5132302;27;35366;-89
2021/04/21 08:08:49;;;;;;;;;;;;;;;19.89;38.33;100079.72;5103823;27;32730;-88
2021/04/21 08:11:50;;;;;;;;;;;;;;;20.51;37.32;100087.13;5100480;27;32562;-89
2021/04/21 08:15:26;;;;;;;;;;;;;;;21.09;35.24;100089.41;5128056;27;35144;-89
2021/04/21 08:18:11;;;;;;;;;;;;;;;21.35;35.31;100082.31;5096937;27;34491;-89
2021/04/21 08:21:43;;;;;;;;;;;;;;;21.45;34.68;100084.28;5115062;27;33686;-88
2021/04/21 08:24:51;;;;;;;;;;;;;;;20.67;34.98;100091.37;5101959;27;34537;-89
2021/04/21 08:28:01;;;;;;;;;;;;;;;20.55;35.76;100087.75;5105649;27;33835;-88
2021/04/21 08:31:06;;;;;;;;;;;;;;;21.15;33.94;100085.47;5114051;27;32575;-88
2021/04/21 08:34:53;;;;;;;;;;;;;;;21.59;33.11;100086.84;5158477;27;32918;-89
2021/04/21 08:38:21;;;;;;;;;;;;;;;21.89;33.05;100092.69;5178330;27;35858;-89
2021/04/21 08:41:34;;;;;;;;;;;;;;;22.04;32.45;100080.09;5191449;27;34529;-88
2021/04/21 08:44:55;;;;;;;;;;;;;;;21.94;32.17;100090.56;5217003;27;34910;-90
2021/04/21 08:48:12;;;;;;;;;;;;;;;21.48;32.70;100089.38;5155142;27;32069;-89
2021/04/21 08:51:47;;;;;;;;;;;;;;;22.02;32.09;100096.97;5213400;27;33375;-89
2021/04/21 08:55:23;;;;;;;;;;;;;;;21.57;32.47;100091.41;5204405;27;33484;-89
2021/04/21 09:05:21;;;;;;;;;;;;;;;22.41;31.14;100080.06;5235646;27;33424;-88
2021/04/21 09:11:46;;;;;;;;;;;;;;;;;;;;;
2021/04/21 09:15:24;;;;;;;;;;;;;;;23.11;30.64;100070.28;5273244;27;33842;-86
2021/04/21 09:18:43;;;;;;;;;;;;;;;23.05;29.32;100070.75;5232560;27;36524;-86
2021/04/21 09:22:25;;;;;;;;;;;;;;;22.82;29.70;100076.06;5221243;27;34976;-87
2021/04/21 09:29:44;;;;;;;;;;;;;;;24.05;27.28;100064.63;5211519;27;33356;-87
2021/04/21 09:37:04;;;;;;;;;;;;;;;23.76;25.93;100070.47;5127875;27;35647;-88
2021/04/21 10:56:37;;;;;;;;;;;;;;;27.36;19.62;100029.91;4988119;28;20029;-88
2021/04/21 11:00:01;;;;;;;;;;;;;;;27.22;20.43;100040.13;5051662;28;33568;-86
2021/04/21 11:03:30;;;;;;;;;;;;;;;;;;;;;
2021/04/21 11:06:38;;;;;;;;;;;;;;;25.15;21.57;100033.09;5163270;27;32105;-87
2021/04/21 11:10:09;;;;;;;;;;;;;;;24.88;21.58;100028.38;5165035;27;34907;-86
2021/04/21 11:13:17;;;;;;;;;;;;;;;25.93;20.00;100028.97;5141514;27;33139;-87
2021/04/21 11:16:42;;;;;;;;;;;;;;;25.76;20.05;100011.81;5147576;27;33987;-86
2021/04/21 11:20:14;;;;;;;;;;;;;;;24.77;22.32;100015.97;5152741;27;34005;-87
2021/04/21 11:23:42;;;;;;;;;;;;;;;26.08;21.08;100005.38;5149221;27;34308;-86
2021/04/21 11:26:49;;;;;;;;;;;;;;;26.79;19.65;100002.31;5167098;27;33504;-87
2021/04/21 11:33:23;;;;;;;;;;;;;;;27.21;18.26;100009.00;5150600;27;33730;-86
2021/04/21 11:37:04;;;;;;;;;;;;;;;27.07;19.00;100009.50;5139686;27;34578;-86
2021/04/21 11:47:22;;;;;;;;;;;;;;;28.29;16.07;100001.09;5202041;27;34134;-85
2021/04/21 11:56:31;;;;;;;;;;;;;;;28.74;16.20;99996.50;5284002;26;20028;-87
2021/04/21 11:59:51;;;;;;;;;;;;;;;27.96;16.72;99998.09;5199144;27;32958;-87
2021/04/21 12:07:46;;;;;;;;;;;;;;;;;;;;;
2021/04/21 12:40:40;;;;;;;;;;;;;;;27.16;18.19;99969.34;5278436;27;34905;-88
2021/04/21 12:56:29;;;;;;;;;;;;;;;28.96;15.29;99962.94;5193704;26;889286;-95
2021/04/21 12:59:25;;;;;;;;;;;;;;;29.20;15.21;99964.03;5250307;27;34713;-93
2021/04/21 13:01:53;;;;;;;;;;;;;;;28.60;16.55;99959.53;5262060;27;32579;-94
2021/04/21 13:04:20;;;;;;;;;;;;;;;29.11;15.70;99955.09;5260340;27;32930;-94
2021/04/21 13:06:50;;;;;;;;;;;;;;;29.28;15.57;99952.53;5242626;27;33572;-94
2021/04/21 13:09:19;;;;;;;;;;;;;;;29.40;15.71;99953.06;5225363;27;33324;-94
2021/04/21 13:11:47;;;;;;;;;;;;;;;28.36;16.14;99952.22;5242773;27;32357;-93
2021/04/21 13:14:21;;;;;;;;;;;;;;;28.62;16.21;99953.03;5264270;27;33614;-95
2021/04/21 13:16:51;;;;;;;;;;;;;;;29.48;15.39;99953.06;5245474;27;33127;-93
2021/04/21 13:19:22;;;;;;;;;;;;;;;29.27;15.74;99945.47;5245940;27;32704;-94
2021/04/21 13:22:11;;;;;;;;;;;;;;;28.16;16.53;99950.59;5323829;27;32279;-93
2021/04/21 13:24:41;;;;;;;;;;;;;;;28.70;16.44;99949.59;5301909;27;33020;-95
2021/04/21 13:27:23;;;;;;;;;;;;;;;28.34;17.09;99941.66;5281994;27;33002;-93
2021/04/21 13:29:58;;;;;;;;;;;;;;;27.47;18.02;99952.16;5282236;27;32920;-94
2021/04/21 13:32:28;;;;;;;;;;;;;;;26.30;19.45;99937.47;5282882;27;33312;-93
2021/04/21 13:34:58;;;;;;;;;;;;;;;26.71;19.62;99951.44;5283774;27;32538;-93
2021/04/21 13:37:26;;;;;;;;;;;;;;;24.36;23.53;99969.75;5264519;27;32947;-93
2021/04/21 13:39:58;;;;;;;;;;;;;;;23.79;24.00;99962.00;5283058;27;32952;-93
2021/04/21 13:42:28;;;;;;;;;;;;;;;23.94;23.75;99978.53;5300642;27;32534;-94
2021/04/21 13:44:57;;;;;;;;;;;;;;;23.10;24.73;99970.28;5282304;27;33901;-94
2021/04/21 13:47:24;;;;;;;;;;;;;;;23.28;24.93;99974.16;5282252;27;32777;-94
2021/04/21 13:49:53;;;;;;;;;;;;;;;23.13;25.09;99968.22;5319456;27;33023;-93
2021/04/21 13:52:20;;;;;;;;;;;;;;;22.61;25.86;99962.53;5301329;26;32197;-93
2021/04/21 13:54:48;;;;;;;;;;;;;;;22.53;26.18;99978.22;5283231;27;32952;-95
2021/04/21 13:57:16;;;;;;;;;;;;;;;23.05;25.46;99978.59;5302523;27;33048;-93
2021/04/21 13:59:45;;;;;;;;;;;;;;;21.89;27.02;99965.38;5303728;27;33192;-93
2021/04/21 14:02:20;;;;;;;;;;;;;;;22.87;25.76;99956.16;5306560;27;32625;-94
2021/04/21 14:04:50;;;;;;;;;;;;;;;23.28;24.96;99967.97;5310187;27;32698;-92
2021/04/21 14:07:18;;;;;;;;;;;;;;;23.19;25.09;99961.59;5288770;27;33687;-91
2021/04/21 14:09:46;;;;;;;;;;;;;;;23.63;24.63;99961.59;5286274;27;32797;-92
2021/04/21 14:12:20;;;;;;;;;;;;;;;22.71;25.02;99964.47;5331091;27;33002;-95
2021/04/21 14:18:43;;;;;;;;;;;;;;;24.30;23.11;99964.94;5323604;26;20020;-93
2021/04/21 14:21:13;;;;;;;;;;;;;;;23.01;24.27;99959.41;5294034;27;33146;-94
2021/04/21 14:23:40;;;;;;;;;;;;;;;23.72;23.60;99949.34;5312348;27;33220;-93
2021/04/21 14:26:08;;;;;;;;;;;;;;;24.02;22.65;99951.28;5292861;27;33201;-94
2021/04/21 14:28:35;;;;;;;;;;;;;;;23.75;23.49;99949.94;5293724;27;33858;-93
2021/04/21 14:31:03;;;;;;;;;;;;;;;23.93;22.83;99958.25;5291276;27;33241;-94
2021/04/21 14:33:30;;;;;;;;;;;;;;;23.90;22.86;99944.34;5290594;27;32426;-93
2021/04/21 14:36:00;;;;;;;;;;;;;;;23.55;22.91;99946.28;5290185;27;33025;-93
2021/04/21 14:38:28;;;;;;;;;;;;;;;23.23;24.09;99939.13;5308554;27;34858;-94
2021/04/21 14:40:57;;;;;;;;;;;;;;;24.38;22.98;99940.31;5308724;27;32272;-93
2021/04/21 14:43:26;;;;;;;;;;;;;;;24.30;22.44;99938.31;5308139;27;32381;-92
2021/04/21 14:45:53;;;;;;;;;;;;;;;24.67;22.53;99929.84;5307572;27;33270;-91
2021/04/21 14:48:21;;;;;;;;;;;;;;;24.42;22.59;99936.41;5308138;27;33779;-93
2021/04/21 14:50:48;;;;;;;;;;;;;;;23.51;23.80;99934.22;5307193;27;33263;-94
2021/04/21 14:53:16;;;;;;;;;;;;;;;24.06;23.36;99936.75;5314031;27;34441;-90
2021/04/21 14:55:43;;;;;;;;;;;;;;;23.57;24.10;99925.69;5309116;27;33212;-93
2021/04/21 14:58:12;;;;;;;;;;;;;;;23.61;24.15;99935.16;5306877;27;33253;-93
2021/04/21 15:00:38;;;;;;;;;;;;;;;24.35;23.19;99928.94;5306413;27;33012;-94
2021/04/21 15:03:09;;;;;;;;;;;;;;;24.04;23.46;99938.72;5305918;27;31986;-92
2021/04/21 15:05:37;;;;;;;;;;;;;;;23.78;23.90;99935.53;5305870;27;33202;-92
2021/04/21 15:08:04;;;;;;;;;;;;;;;24.11;23.31;99933.72;5306394;27;34279;-92
2021/04/21 15:10:31;;;;;;;;;;;;;;;24.11;23.37;99939.87;5305797;27;32544;-91
2021/04/21 15:12:59;;;;;;;;;;;;;;;23.39;24.32;99921.91;5305354;27;33811;-92
2021/04/21 15:15:27;;;;;;;;;;;;;;;23.77;23.63;99937.38;5305339;27;34608;-91
2021/04/21 15:17:54;;;;;;;;;;;;;;;23.51;23.74;99931.53;5304158;26;33025;-92
2021/04/21 15:20:22;;;;;;;;;;;;;;;23.30;24.17;99929.66;5305715;27;32658;-93
2021/04/21 15:22:49;;;;;;;;;;;;;;;23.89;23.29;99937.31;5305910;27;32453;-92
2021/04/21 15:25:18;;;;;;;;;;;;;;;23.96;23.17;99931.38;5305335;27;33942;-92
2021/04/21 15:27:49;;;;;;;;;;;;;;;23.53;23.78;99934.91;5286846;27;34509;-92
2021/04/21 15:30:22;;;;;;;;;;;;;;;23.81;23.36;99937.94;5305695;27;32773;-92
2021/04/21 15:32:50;;;;;;;;;;;;;;;23.01;24.84;99943.47;5304953;27;32102;-91
2021/04/21 15:35:17;;;;;;;;;;;;;;;23.59;23.92;99936.25;5304679;26;33001;-91
2021/04/21 15:37:51;;;;;;;;;;;;;;;23.83;23.31;99946.66;5323461;27;34163;-91
2021/04/21 15:40:22;;;;;;;;;;;;;;;24.09;23.03;99938.31;5305591;27;32777;-92
2021/04/21 15:42:50;;;;;;;;;;;;;;;23.64;23.84;99937.53;5323051;27;31741;-93
2021/04/21 15:45:22;;;;;;;;;;;;;;;23.46;24.29;99941.72;5304830;27;34636;-91
2021/04/21 15:47:49;;;;;;;;;;;;;;;23.90;23.80;99945.19;5322953;26;34111;-92
2021/04/21 15:50:18;;;;;;;;;;;;;;;23.63;24.38;99937.66;5323406;26;33526;-94
2021/04/21 15:52:46;;;;;;;;;;;;;;;24.07;23.62;99942.94;5305666;27;32162;-92
2021/04/21 15:55:17;;;;;;;;;;;;;;;24.65;22.71;99937.09;5304688;27;33180;-91
2021/04/21 15:57:48;;;;;;;;;;;;;;;23.21;24.98;99941.03;5305858;27;32918;-90
2021/04/21 16:00:17;;;;;;;;;;;;;;;23.49;24.88;99938.78;5305691;27;33880;-90
2021/04/21 16:02:52;;;;;;;;;;;;;;;23.44;24.47;99952.47;5305300;27;32215;-91
2021/04/21 16:05:20;;;;;;;;;;;;;;;23.56;24.30;99941.78;5304662;27;32963;-92
2021/04/21 16:07:48;;;;;;;;;;;;;;;23.79;24.20;99947.87;5304841;27;33889;-90
2021/04/21 16:10:19;;;;;;;;;;;;;;;23.62;23.97;99943.94;5286955;27;33682;-90
2021/04/21 16:12:46;;;;;;;;;;;;;;;23.33;24.03;99944.50;5305108;27;31922;-91
2021/04/21 16:15:14;;;;;;;;;;;;;;;23.81;23.52;99948.59;5304449;27;32997;-91
2021/04/21 16:17:42;;;;;;;;;;;;;;;23.31;24.20;99949.97;5305186;27;34473;-91
2021/04/21 16:20:10;;;;;;;;;;;;;;;22.93;25.06;99945.88;5306276;27;33002;-91
2021/04/21 16:22:38;;;;;;;;;;;;;;;23.12;25.02;99949.72;5306851;27;32529;-92
2021/04/21 16:25:08;;;;;;;;;;;;;;;22.78;25.94;99955.06;5308319;27;33905;-92
2021/04/21 16:27:45;;;;;;;;;;;;;;;22.99;25.86;99953.38;5312587;27;32999;-93
2021/04/21 16:30:14;;;;;;;;;;;;;;;22.53;26.46;99943.72;5316911;27;33842;-93
2021/04/21 16:32:41;;;;;;;;;;;;;;;22.78;26.37;99942.63;5310584;27;32171;-92
2021/04/21 16:35:09;;;;;;;;;;;;;;;23.21;25.61;99945.53;5310120;27;34060;-93
2021/04/21 16:37:38;;;;;;;;;;;;;;;22.52;26.66;99939.34;5310546;27;32636;-93
2021/04/21 16:40:05;;;;;;;;;;;;;;;22.16;27.64;99951.81;5308398;27;33418;-93
2021/04/21 16:42:33;;;;;;;;;;;;;;;22.62;27.02;99947.47;5304974;27;32053;-92
2021/04/21 16:45:00;;;;;;;;;;;;;;;23.03;26.61;99951.31;5304905;27;34055;-93
2021/04/21 16:47:28;;;;;;;;;;;;;;;23.13;26.09;99957.59;5323212;27;34372;-93
2021/04/21 16:49:56;;;;;;;;;;;;;;;23.32;25.89;99954.31;5304660;27;32918;-92
2021/04/21 16:52:23;;;;;;;;;;;;;;;23.21;25.66;99958.81;5286547;27;31808;-92
2021/04/21 16:54:51;;;;;;;;;;;;;;;23.54;25.06;99949.91;5304897;27;32993;-93
2021/04/21 16:57:20;;;;;;;;;;;;;;;23.72;24.82;99954.66;5304695;27;33585;-92
2021/04/21 16:59:48;;;;;;;;;;;;;;;23.39;25.50;99961.78;5305740;27;33782;-92
2021/04/21 17:02:15;;;;;;;;;;;;;;;22.99;26.06;99955.19;5306731;27;32244;-92